Time;durP1;ratioP1;P1;durP2;ratioP2;P2;SDS_P1;SDS_P2;PMS_P1;PMS_P2;Temp;Humidity;BMP_temperature;BMP_pressure;BME280_temperature;BME280_humidity;BME280_pressure;Samples;Min_cycle;Max_cycle;Signal;HPM_P1;HPM_P2
2021/08/27 00:00:49;;;;;;;4.82;1.33;;;;;;;;;;5031938;28;20044;-70
2021/08/27 00:03:16;;;;;;;2.60;0.50;;;;;;;;;;5035592;28;20103;-71
2021/08/27 00:05:43;;;;;;;3.90;0.60;;;;;;;;;;5043617;28;20021;-70
2021/08/27 00:08:10;;;;;;;2.47;0.90;;;;;;;;;;5046729;28;20025;-71
2021/08/27 00:10:37;;;;;;;3.15;0.65;;;;;;;;;;5032606;28;20022;-71
2021/08/27 00:13:05;;;;;;;1.73;0.55;;;;;;;;;;5032114;28;20049;-69
2021/08/27 00:15:32;;;;;;;0.70;0.40;;;;;;;;;;5031827;28;20033;-71
2021/08/27 00:17:59;;;;;;;1.77;0.40;;;;;;;;;;5038981;28;20108;-72
2021/08/27 00:20:26;;;;;;;2.25;0.40;;;;;;;;;;5039531;28;20040;-69
2021/08/27 00:22:53;;;;;;;2.05;0.50;;;;;;;;;;5052387;28;20032;-71
2021/08/27 00:25:20;;;;;;;3.22;0.57;;;;;;;;;;5043953;28;20108;-70
2021/08/27 00:27:48;;;;;;;0.80;0.30;;;;;;;;;;5039721;28;20028;-69
2021/08/27 00:30:15;;;;;;;0.93;0.30;;;;;;;;;;5036765;28;20021;-69
2021/08/27 00:32:42;;;;;;;2.72;0.52;;;;;;;;;;5047809;28;20033;-69
2021/08/27 00:35:09;;;;;;;1.02;0.47;;;;;;;;;;5037348;28;20104;-71
2021/08/27 00:37:37;;;;;;;1.05;0.47;;;;;;;;;;5032394;28;20398;-71
2021/08/27 00:40:04;;;;;;;1.25;0.40;;;;;;;;;;5035672;28;20032;-70
2021/08/27 00:42:31;;;;;;;1.15;0.20;;;;;;;;;;5032292;28;20052;-69
2021/08/27 00:44:59;;;;;;;0.35;0.20;;;;;;;;;;5039318;28;20104;-70
2021/08/27 00:47:26;;;;;;;1.58;0.40;;;;;;;;;;5045929;28;20033;-69
2021/08/27 00:49:53;;;;;;;4.50;0.50;;;;;;;;;;5034217;28;20034;-70
2021/08/27 00:52:21;;;;;;;3.22;0.30;;;;;;;;;;5036847;28;20033;-70
2021/08/27 00:54:50;;;;;;;1.13;0.30;;;;;;;;;;5034266;28;20113;-71
2021/08/27 00:57:17;;;;;;;5.93;0.30;;;;;;;;;;5046588;28;20033;-70
2021/08/27 00:59:44;;;;;;;4.20;0.38;;;;;;;;;;5044507;28;20029;-71
2021/08/27 01:02:11;;;;;;;1.38;0.20;;;;;;;;;;5033347;28;20028;-71
2021/08/27 01:04:42;;;;;;;3.30;0.30;;;;;;;;;;5029752;28;20029;-71
2021/08/27 01:07:12;;;;;;;1.00;0.40;;;;;;;;;;5029677;28;20091;-71
2021/08/27 01:09:51;;;;;;;1.25;0.25;;;;;;;;;;5030739;28;20445;-70
2021/08/27 01:12:38;;;;;;;0.75;0.30;;;;;;;;;;5028229;28;20017;-70
2021/08/27 01:15:26;;;;;;;1.63;0.35;;;;;;;;;;5031369;28;20044;-70
2021/08/27 01:18:16;;;;;;;0.95;0.20;;;;;;;;;;5029645;28;20041;-70
2021/08/27 01:21:01;;;;;;;1.65;0.20;;;;;;;;;;5034566;28;20095;-70
2021/08/27 01:23:48;;;;;;;0.77;0.28;;;;;;;;;;5037475;28;20029;-69
2021/08/27 01:26:18;;;;;;;2.67;0.50;;;;;;;;;;5031748;28;20025;-70
2021/08/27 01:28:49;;;;;;;1.38;0.45;;;;;;;;;;5035214;28;20026;-70
2021/08/27 01:31:20;;;;;;;1.42;0.50;;;;;;;;;;5037126;28;20040;-71
2021/08/27 01:33:56;;;;;;;4.82;0.32;;;;;;;;;;5042116;28;20021;-71
2021/08/27 01:36:25;;;;;;;0.98;0.30;;;;;;;;;;5043490;28;20022;-71
2021/08/27 01:38:52;;;;;;;1.13;0.30;;;;;;;;;;5031019;28;20409;-70
2021/08/27 01:41:20;;;;;;;1.35;0.45;;;;;;;;;;5035139;28;20029;-71
2021/08/27 01:43:49;;;;;;;4.25;0.40;;;;;;;;;;5029270;28;20406;-71
2021/08/27 01:46:17;;;;;;;2.58;0.50;;;;;;;;;;5032554;28;20029;-70
2021/08/27 01:48:45;;;;;;;1.40;0.20;;;;;;;;;;5029654;28;20056;-71
2021/08/27 01:51:13;;;;;;;1.05;0.47;;;;;;;;;;5029664;28;20449;-71
2021/08/27 01:53:41;;;;;;;0.43;0.35;;;;;;;;;;5031517;28;20099;-71
2021/08/27 01:56:09;;;;;;;0.77;0.38;;;;;;;;;;5039173;28;20099;-71
2021/08/27 01:58:36;;;;;;;1.38;0.20;;;;;;;;;;5033714;28;20030;-71
2021/08/27 02:01:04;;;;;;;1.55;0.40;;;;;;;;;;5036370;28;20059;-70
2021/08/27 02:03:32;;;;;;;0.57;0.30;;;;;;;;;;5034697;28;20025;-70
2021/08/27 02:06:00;;;;;;;0.98;0.40;;;;;;;;;;5035507;28;20421;-71
2021/08/27 02:08:28;;;;;;;2.08;0.20;;;;;;;;;;5043186;28;20025;-71
2021/08/27 02:10:56;;;;;;;3.35;0.47;;;;;;;;;;5048648;28;20045;-71
2021/08/27 02:13:23;;;;;;;3.10;0.50;;;;;;;;;;5036191;28;20052;-71
2021/08/27 02:15:51;;;;;;;0.88;0.40;;;;;;;;;;5035625;28;20032;-70
2021/08/27 02:18:18;;;;;;;3.90;0.30;;;;;;;;;;5034901;28;20033;-70
2021/08/27 02:20:46;;;;;;;1.88;0.50;;;;;;;;;;5040784;28;20061;-72
2021/08/27 02:23:14;;;;;;;3.85;0.43;;;;;;;;;;5044268;28;20034;-71
2021/08/27 02:25:43;;;;;;;0.93;0.50;;;;;;;;;;5036460;28;20021;-71
2021/08/27 02:28:12;;;;;;;1.50;0.25;;;;;;;;;;5034065;28;20025;-71
2021/08/27 02:30:39;;;;;;;1.40;0.30;;;;;;;;;;5034529;28;20613;-72
2021/08/27 02:33:09;;;;;;;5.15;1.00;;;;;;;;;;5050823;28;20108;-71
2021/08/27 02:35:36;;;;;;;0.75;0.30;;;;;;;;;;5047209;28;20366;-72
2021/08/27 02:38:04;;;;;;;1.88;0.70;;;;;;;;;;5043742;28;20052;-72
2021/08/27 02:40:31;;;;;;;2.33;0.40;;;;;;;;;;5035251;28;20048;-72
2021/08/27 02:42:59;;;;;;;0.80;0.32;;;;;;;;;;5043470;28;20033;-70
2021/08/27 02:45:26;;;;;;;2.08;0.65;;;;;;;;;;5041758;28;20029;-71
2021/08/27 02:47:53;;;;;;;2.25;0.52;;;;;;;;;;5034255;28;20034;-71
2021/08/27 02:50:20;;;;;;;1.80;0.40;;;;;;;;;;5043844;28;20053;-71
2021/08/27 02:52:57;;;;;;;1.80;0.52;;;;;;;;;;5042915;28;20497;-70
2021/08/27 02:55:27;;;;;;;3.33;0.52;;;;;;;;;;5038434;28;20501;-71
2021/08/27 02:58:08;;;;;;;1.92;0.30;;;;;;;;;;5039160;28;20021;-70
2021/08/27 03:00:37;;;;;;;0.50;0.22;;;;;;;;;;5036369;28;20437;-69
2021/08/27 03:03:06;;;;;;;0.60;0.15;;;;;;;;;;5038760;28;20641;-70
2021/08/27 03:05:39;;;;;;;0.68;0.22;;;;;;;;;;5035273;28;20029;-70
2021/08/27 03:08:07;;;;;;;3.40;0.28;;;;;;;;;;5036556;28;20021;-70
2021/08/27 03:10:39;;;;;;;2.55;0.20;;;;;;;;;;5035332;28;20028;-70
2021/08/27 03:13:06;;;;;;;1.08;0.13;;;;;;;;;;5035459;28;20418;-70
2021/08/27 03:15:38;;;;;;;0.20;0.10;;;;;;;;;;5037107;28;20027;-71
2021/08/27 03:18:08;;;;;;;0.90;0.15;;;;;;;;;;5036807;28;20080;-71
2021/08/27 03:20:55;;;;;;;0.10;0.08;;;;;;;;;;5034857;28;20501;-71
2021/08/27 03:23:23;;;;;;;1.55;0.10;;;;;;;;;;5038320;28;20129;-70
2021/08/27 03:25:50;;;;;;;0.77;0.20;;;;;;;;;;5033004;28;20069;-70
2021/08/27 03:28:28;;;;;;;0.93;0.10;;;;;;;;;;5035930;28;20029;-70
2021/08/27 03:30:56;;;;;;;0.25;0.20;;;;;;;;;;5041901;28;20116;-70
2021/08/27 03:33:24;;;;;;;1.02;0.30;;;;;;;;;;5033085;28;20034;-71
2021/08/27 03:35:55;;;;;;;1.73;0.30;;;;;;;;;;5039398;28;20501;-71
2021/08/27 03:38:24;;;;;;;2.58;0.30;;;;;;;;;;5034351;28;20123;-71
2021/08/27 03:40:52;;;;;;;0.88;0.20;;;;;;;;;;5037860;28;20056;-70
2021/08/27 03:43:20;;;;;;;0.98;0.20;;;;;;;;;;5036956;28;21728;-70
2021/08/27 03:45:49;;;;;;;0.70;0.10;;;;;;;;;;5033576;28;20059;-70
2021/08/27 03:48:16;;;;;;;0.40;0.28;;;;;;;;;;5034421;28;20022;-70
2021/08/27 03:50:43;;;;;;;1.02;0.20;;;;;;;;;;5033955;28;20220;-70
2021/08/27 03:53:11;;;;;;;1.23;0.10;;;;;;;;;;5032292;28;20036;-70
2021/08/27 03:55:38;;;;;;;2.20;0.10;;;;;;;;;;5042017;28;20051;-70
2021/08/27 03:58:07;;;;;;;0.40;0.13;;;;;;;;;;5029729;28;20041;-71
2021/08/27 04:00:34;;;;;;;1.50;0.20;;;;;;;;;;5036204;28;20041;-71
2021/08/27 04:03:02;;;;;;;3.03;0.40;;;;;;;;;;5036064;28;20018;-70
2021/08/27 04:05:29;;;;;;;0.70;0.20;;;;;;;;;;5038787;28;20051;-70
2021/08/27 04:07:56;;;;;;;0.40;0.10;;;;;;;;;;5037844;28;20531;-71
2021/08/27 04:10:23;;;;;;;0.47;0.10;;;;;;;;;;5037011;28;20021;-71
2021/08/27 04:12:50;;;;;;;2.28;0.77;;;;;;;;;;5039556;28;20393;-71
2021/08/27 04:15:22;;;;;;;2.00;0.82;;;;;;;;;;5031167;28;20030;-69
2021/08/27 04:17:50;;;;;;;1.80;0.60;;;;;;;;;;5031907;28;20359;-71
2021/08/27 04:20:17;;;;;;;1.27;0.20;;;;;;;;;;5030522;28;20443;-70
2021/08/27 04:22:44;;;;;;;0.75;0.10;;;;;;;;;;5031396;28;20022;-71
2021/08/27 04:25:11;;;;;;;0.52;0.20;;;;;;;;;;5031307;28;20018;-71
2021/08/27 04:27:38;;;;;;;0.20;0.10;;;;;;;;;;5035920;28;20028;-70
2021/08/27 04:30:06;;;;;;;0.40;0.10;;;;;;;;;;5030953;28;20033;-69
2021/08/27 04:32:33;;;;;;;0.45;0.28;;;;;;;;;;5030626;28;20056;-71
2021/08/27 04:35:00;;;;;;;0.40;0.20;;;;;;;;;;5031847;28;20013;-70
2021/08/27 04:37:28;;;;;;;1.27;0.20;;;;;;;;;;5041393;28;20490;-71
2021/08/27 04:39:58;;;;;;;0.45;0.10;;;;;;;;;;5037168;28;20041;-71
2021/08/27 04:42:25;;;;;;;0.28;0.20;;;;;;;;;;5038161;28;20021;-71
2021/08/27 04:44:52;;;;;;;0.63;0.13;;;;;;;;;;5036717;28;20538;-71
2021/08/27 04:47:19;;;;;;;0.57;0.38;;;;;;;;;;5039192;28;20101;-72
2021/08/27 04:49:47;;;;;;;0.30;0.03;;;;;;;;;;5042238;28;20040;-74
2021/08/27 04:52:14;;;;;;;0.20;0.10;;;;;;;;;;5031158;28;20037;-71
2021/08/27 04:54:41;;;;;;;0.82;0.10;;;;;;;;;;5037045;28;20026;-71
2021/08/27 04:57:11;;;;;;;0.70;0.20;;;;;;;;;;5045208;28;20127;-70
2021/08/27 04:59:42;;;;;;;0.50;0.30;;;;;;;;;;5038966;28;20032;-71
2021/08/27 05:02:10;;;;;;;0.55;0.20;;;;;;;;;;5042355;28;20029;-71
2021/08/27 05:04:37;;;;;;;0.25;0.10;;;;;;;;;;5035059;28;20056;-70
2021/08/27 05:07:05;;;;;;;13.10;0.80;;;;;;;;;;5041347;28;20128;-71
2021/08/27 05:09:32;;;;;;;1.48;0.50;;;;;;;;;;5039836;28;20057;-71
2021/08/27 05:11:59;;;;;;;1.48;0.20;;;;;;;;;;5029121;28;20079;-71
2021/08/27 05:14:26;;;;;;;2.28;0.30;;;;;;;;;;5036876;28;20060;-72
2021/08/27 05:16:54;;;;;;;3.97;0.20;;;;;;;;;;5034573;28;20022;-72
2021/08/27 05:19:21;;;;;;;1.27;0.20;;;;;;;;;;5031544;28;20512;-72
2021/08/27 05:21:48;;;;;;;0.50;0.30;;;;;;;;;;5036350;28;20028;-71
2021/08/27 05:24:15;;;;;;;2.40;0.30;;;;;;;;;;5032821;28;20022;-72
2021/08/27 05:26:42;;;;;;;1.92;0.50;;;;;;;;;;5033955;28;20021;-70
2021/08/27 05:29:09;;;;;;;2.65;0.40;;;;;;;;;;5030497;28;20472;-72
2021/08/27 05:31:36;;;;;;;5.65;0.90;;;;;;;;;;5037849;28;20022;-70
2021/08/27 05:34:06;;;;;;;2.42;0.50;;;;;;;;;;5038455;28;20025;-71
2021/08/27 05:36:34;;;;;;;6.30;0.70;;;;;;;;;;5034356;28;20043;-70
2021/08/27 05:39:01;;;;;;;3.65;0.68;;;;;;;;;;5035082;28;20082;-69
2021/08/27 05:41:29;;;;;;;3.45;0.77;;;;;;;;;;5039563;28;20086;-70
2021/08/27 05:43:56;;;;;;;4.70;0.60;;;;;;;;;;5042754;28;20033;-69
2021/08/27 05:46:24;;;;;;;5.70;1.45;;;;;;;;;;5039455;28;20076;-71
2021/08/27 05:48:51;;;;;;;3.70;1.00;;;;;;;;;;5040359;28;20037;-71
2021/08/27 05:51:18;;;;;;;5.88;0.40;;;;;;;;;;5039654;28;20064;-70
2021/08/27 05:53:45;;;;;;;3.05;0.88;;;;;;;;;;5042558;28;20032;-72
2021/08/27 05:56:14;;;;;;;3.08;0.80;;;;;;;;;;5044393;28;20401;-76
2021/08/27 05:58:41;;;;;;;2.03;0.43;;;;;;;;;;5037231;28;20489;-75
2021/08/27 06:01:08;;;;;;;4.93;1.00;;;;;;;;;;5040234;28;20566;-74
2021/08/27 06:03:35;;;;;;;4.20;0.50;;;;;;;;;;5035551;28;20029;-74
2021/08/27 06:06:02;;;;;;;3.30;0.50;;;;;;;;;;5046611;28;20017;-74
2021/08/27 06:08:29;;;;;;;4.45;0.73;;;;;;;;;;5038668;28;20032;-75
2021/08/27 06:10:56;;;;;;;4.57;0.90;;;;;;;;;;5035029;28;20029;-74
2021/08/27 06:13:24;;;;;;;3.28;0.77;;;;;;;;;;5035105;28;20037;-74
2021/08/27 06:15:51;;;;;;;3.67;0.88;;;;;;;;;;5050084;28;20040;-74
2021/08/27 06:18:18;;;;;;;3.05;0.82;;;;;;;;;;5054616;28;20422;-73
2021/08/27 06:20:47;;;;;;;3.60;1.10;;;;;;;;;;5035384;28;20421;-74
2021/08/27 06:23:14;;;;;;;5.25;0.60;;;;;;;;;;5034825;28;20024;-73
2021/08/27 06:25:41;;;;;;;3.30;1.00;;;;;;;;;;5037608;28;20026;-74
2021/08/27 06:28:09;;;;;;;1.20;0.50;;;;;;;;;;5048153;28;20036;-74
2021/08/27 06:30:36;;;;;;;3.47;0.77;;;;;;;;;;5036906;28;20052;-74
2021/08/27 06:33:03;;;;;;;3.17;0.40;;;;;;;;;;5038654;28;20033;-74
2021/08/27 06:35:31;;;;;;;2.20;0.50;;;;;;;;;;5038262;28;20053;-73
2021/08/27 06:40:44;;;;;;;1.20;0.40;;;;;;;;;;5041588;28;20043;-73
2021/08/27 06:43:12;;;;;;;2.75;0.40;;;;;;;;;;5040480;28;20330;-72
2021/08/27 06:45:39;;;;;;;2.20;0.30;;;;;;;;;;5033269;28;20124;-72
2021/08/27 06:48:06;;;;;;;3.00;0.40;;;;;;;;;;5037178;28;20056;-72
2021/08/27 06:50:37;;;;;;;2.15;0.40;;;;;;;;;;5040658;28;20456;-73
2021/08/27 06:53:05;;;;;;;2.60;0.30;;;;;;;;;;5052320;28;20028;-73
2021/08/27 06:55:33;;;;;;;2.45;0.60;;;;;;;;;;5038033;28;20052;-73
2021/08/27 06:58:01;;;;;;;6.15;0.68;;;;;;;;;;5038830;28;20040;-73
2021/08/27 07:00:28;;;;;;;2.22;0.50;;;;;;;;;;5033756;28;20386;-74
2021/08/27 07:02:55;;;;;;;1.15;0.28;;;;;;;;;;5042075;28;20021;-72
2021/08/27 07:05:23;;;;;;;2.60;1.05;;;;;;;;;;5034875;28;20025;-72
2021/08/27 07:07:50;;;;;;;8.52;1.00;;;;;;;;;;5032793;28;20034;-73
2021/08/27 07:10:17;;;;;;;3.60;0.45;;;;;;;;;;5033064;28;20029;-73
2021/08/27 07:12:44;;;;;;;7.57;0.60;;;;;;;;;;5043607;28;20024;-73
2021/08/27 07:15:12;;;;;;;5.85;1.33;;;;;;;;;;5040408;28;20032;-73
2021/08/27 07:17:39;;;;;;;9.60;1.00;;;;;;;;;;5040118;28;20551;-72
2021/08/27 07:20:07;;;;;;;2.65;0.77;;;;;;;;;;5037142;28;20085;-72
2021/08/27 07:22:35;;;;;;;3.88;1.75;;;;;;;;;;5032455;28;20029;-72
2021/08/27 07:25:02;;;;;;;7.78;1.92;;;;;;;;;;5031429;28;20017;-71
2021/08/27 07:27:29;;;;;;;8.55;2.30;;;;;;;;;;5037827;28;20036;-71
2021/08/27 07:29:56;;;;;;;7.07;1.77;;;;;;;;;;5034686;28;20082;-71
2021/08/27 07:32:23;;;;;;;5.38;1.30;;;;;;;;;;5036652;28;20559;-73
2021/08/27 07:34:51;;;;;;;5.53;1.30;;;;;;;;;;5036787;28;20026;-72
2021/08/27 07:37:18;;;;;;;4.45;0.70;;;;;;;;;;5035041;28;20467;-73
2021/08/27 07:39:45;;;;;;;5.05;0.70;;;;;;;;;;5031796;28;20033;-71
2021/08/27 07:42:12;;;;;;;4.25;0.95;;;;;;;;;;5037394;28;20022;-71
2021/08/27 07:44:39;;;;;;;5.78;1.02;;;;;;;;;;5036450;28;20025;-71
2021/08/27 07:47:06;;;;;;;3.83;1.25;;;;;;;;;;5031388;28;20040;-69
2021/08/27 07:49:34;;;;;;;3.20;1.23;;;;;;;;;;5030953;28;20033;-67
2021/08/27 07:52:02;;;;;;;5.75;0.77;;;;;;;;;;5032125;28;20025;-66
2021/08/27 07:54:30;;;;;;;4.60;1.70;;;;;;;;;;5031702;28;20026;-66
2021/08/27 07:56:57;;;;;;;22.15;16.45;;;;;;;;;;5031208;28;20036;-66
2021/08/27 07:59:25;;;;;;;20.15;10.48;;;;;;;;;;5038433;28;20029;-66
2021/08/27 08:01:52;;;;;;;13.48;4.28;;;;;;;;;;5030966;28;20059;-66
2021/08/27 08:04:20;;;;;;;12.95;2.70;;;;;;;;;;5032807;28;20079;-68
2021/08/27 08:06:47;;;;;;;10.45;2.28;;;;;;;;;;5030955;28;20021;-67
2021/08/27 08:09:14;;;;;;;9.77;2.75;;;;;;;;;;5032294;28;20030;-68
2021/08/27 08:11:41;;;;;;;9.80;3.83;;;;;;;;;;5041931;28;20106;-67
2021/08/27 08:14:08;;;;;;;8.30;2.78;;;;;;;;;;5033753;28;20031;-67
2021/08/27 08:16:36;;;;;;;5.53;1.45;;;;;;;;;;5030886;28;20022;-67
2021/08/27 08:19:03;;;;;;;2.20;0.82;;;;;;;;;;5033218;28;20025;-68
2021/08/27 08:21:30;;;;;;;2.70;0.95;;;;;;;;;;5031827;28;20455;-68
2021/08/27 08:23:57;;;;;;;2.47;0.85;;;;;;;;;;5031134;28;20096;-70
2021/08/27 08:26:27;;;;;;;4.50;0.85;;;;;;;;;;5037219;28;20036;-70
2021/08/27 08:28:54;;;;;;;2.13;0.70;;;;;;;;;;5040453;28;20558;-70
2021/08/27 08:31:22;;;;;;;2.55;1.90;;;;;;;;;;5029878;28;20037;-70
2021/08/27 08:33:50;;;;;;;1.88;0.90;;;;;;;;;;5034328;28;20063;-70
2021/08/27 08:36:18;;;;;;;1.08;0.50;;;;;;;;;;5037209;28;20078;-71
2021/08/27 08:38:45;;;;;;;2.13;0.60;;;;;;;;;;5031587;28;20037;-70
2021/08/27 08:41:14;;;;;;;5.60;1.33;;;;;;;;;;5032676;28;20045;-71
2021/08/27 08:43:42;;;;;;;2.05;1.42;;;;;;;;;;5031972;28;20034;-69
2021/08/27 08:46:09;;;;;;;2.72;1.88;;;;;;;;;;5030457;28;20025;-71
2021/08/27 08:48:38;;;;;;;2.63;2.10;;;;;;;;;;5030924;28;20040;-72
2021/08/27 08:51:08;;;;;;;3.10;1.60;;;;;;;;;;5037913;28;20513;-71
2021/08/27 08:53:35;;;;;;;2.80;1.42;;;;;;;;;;5031326;28;20100;-70
2021/08/27 08:56:04;;;;;;;3.08;1.15;;;;;;;;;;5034179;28;20017;-71
2021/08/27 08:58:32;;;;;;;2.90;1.58;;;;;;;;;;5038934;28;20036;-70
2021/08/27 09:00:59;;;;;;;1.70;0.70;;;;;;;;;;5041929;28;20103;-71
2021/08/27 09:03:26;;;;;;;2.67;0.52;;;;;;;;;;5042507;28;20032;-71
2021/08/27 09:05:54;;;;;;;2.13;0.50;;;;;;;;;;5034288;28;20026;-71
2021/08/27 09:08:36;;;;;;;2.40;0.60;;;;;;;;;;5035237;28;20025;-70
2021/08/27 09:11:13;;;;;;;1.30;0.60;;;;;;;;;;5049661;28;20028;-69
2021/08/27 09:13:41;;;;;;;0.90;0.40;;;;;;;;;;5044887;28;20021;-70
2021/08/27 09:16:09;;;;;;;0.95;0.65;;;;;;;;;;5044163;28;20017;-70
2021/08/27 09:19:02;;;;;;;1.90;0.73;;;;;;;;;;5052011;28;20516;-71
2021/08/27 09:21:46;;;;;;;2.30;1.10;;;;;;;;;;5036164;28;20037;-70
2021/08/27 09:24:24;;;;;;;2.75;1.90;;;;;;;;;;5036504;28;20494;-71
2021/08/27 09:26:56;;;;;;;4.45;3.08;;;;;;;;;;5034030;28;20427;-71
2021/08/27 09:29:32;;;;;;;4.07;2.78;;;;;;;;;;5049902;28;20025;-71
2021/08/27 09:31:59;;;;;;;3.03;1.77;;;;;;;;;;5039261;28;20551;-71
2021/08/27 09:34:30;;;;;;;2.55;1.65;;;;;;;;;;5038651;28;20025;-71
2021/08/27 09:36:58;;;;;;;1.75;0.90;;;;;;;;;;5035010;28;20049;-72
2021/08/27 09:39:51;;;;;;;1.08;0.50;;;;;;;;;;5044870;28;20033;-72
2021/08/27 09:42:18;;;;;;;2.95;0.93;;;;;;;;;;5035140;28;20045;-71
2021/08/27 09:44:54;;;;;;;3.17;0.90;;;;;;;;;;5035415;28;20052;-72
2021/08/27 09:47:21;;;;;;;1.58;0.60;;;;;;;;;;5036211;28;20059;-71
2021/08/27 09:49:48;;;;;;;1.55;0.60;;;;;;;;;;5035008;28;20051;-72
2021/08/27 09:52:16;;;;;;;0.95;0.47;;;;;;;;;;5039961;28;20032;-69
2021/08/27 09:54:43;;;;;;;1.45;0.50;;;;;;;;;;5039735;28;20505;-71
2021/08/27 09:57:12;;;;;;;1.00;0.50;;;;;;;;;;5038180;28;20167;-71
2021/08/27 09:59:51;;;;;;;1.63;0.50;;;;;;;;;;5035327;28;20112;-72
2021/08/27 10:02:29;;;;;;;0.98;0.43;;;;;;;;;;5039892;28;20022;-71
2021/08/27 10:04:58;;;;;;;2.42;1.02;;;;;;;;;;5040124;28;20026;-70
2021/08/27 10:07:35;;;;;;;2.10;1.20;;;;;;;;;;5041824;28;20025;-70
2021/08/27 10:10:04;;;;;;;2.63;1.00;;;;;;;;;;5046314;28;20114;-70
2021/08/27 10:12:32;;;;;;;1.77;0.88;;;;;;;;;;5050930;28;20114;-72
2021/08/27 10:15:00;;;;;;;1.10;0.55;;;;;;;;;;5053603;28;20017;-72
2021/08/27 10:17:27;;;;;;;1.80;0.60;;;;;;;;;;5034528;28;20037;-70
2021/08/27 10:19:55;;;;;;;1.88;1.00;;;;;;;;;;5037710;28;20041;-71
2021/08/27 10:22:22;;;;;;;1.75;0.80;;;;;;;;;;5042270;28;20454;-71
2021/08/27 10:24:50;;;;;;;1.45;0.60;;;;;;;;;;5049766;28;20037;-70
2021/08/27 10:27:17;;;;;;;1.05;0.52;;;;;;;;;;5036519;28;20124;-72
2021/08/27 10:29:54;;;;;;;1.17;0.70;;;;;;;;;;5034585;28;20037;-71
2021/08/27 10:32:40;;;;;;;2.22;0.75;;;;;;;;;;5034238;28;20030;-71
2021/08/27 10:35:11;;;;;;;0.88;0.40;;;;;;;;;;5039896;28;20049;-71
2021/08/27 10:37:42;;;;;;;0.70;0.47;;;;;;;;;;5038290;28;20465;-70
2021/08/27 10:40:25;;;;;;;0.85;0.30;;;;;;;;;;5045777;28;20417;-71
2021/08/27 10:42:59;;;;;;;1.02;0.50;;;;;;;;;;5039416;28;20037;-71
2021/08/27 10:45:42;;;;;;;1.17;0.38;;;;;;;;;;5043523;28;20022;-71
2021/08/27 10:48:13;;;;;;;0.90;0.68;;;;;;;;;;5050322;28;20033;-71
2021/08/27 10:50:42;;;;;;;1.83;0.77;;;;;;;;;;5042280;28;20057;-70
2021/08/27 10:53:18;;;;;;;1.83;0.70;;;;;;;;;;5035044;28;20120;-71
2021/08/27 10:55:45;;;;;;;2.13;0.70;;;;;;;;;;5045771;28;20037;-70
2021/08/27 10:58:16;;;;;;;1.80;0.98;;;;;;;;;;5050908;28;20029;-72
2021/08/27 11:00:49;;;;;;;2.55;0.85;;;;;;;;;;5055403;28;20096;-71
2021/08/27 11:03:17;;;;;;;2.20;0.73;;;;;;;;;;5048598;28;20025;-71
2021/08/27 11:05:48;;;;;;;1.17;0.50;;;;;;;;;;5037736;28;20033;-71
2021/08/27 11:08:16;;;;;;;3.10;1.20;;;;;;;;;;5043569;28;20068;-71
2021/08/27 11:10:45;;;;;;;2.95;0.95;;;;;;;;;;5034983;28;20025;-71
2021/08/27 11:13:14;;;;;;;1.15;0.70;;;;;;;;;;5039039;28;20033;-71
2021/08/27 11:15:41;;;;;;;2.28;1.23;;;;;;;;;;5034156;28;20045;-71
2021/08/27 11:18:17;;;;;;;3.58;0.90;;;;;;;;;;5033603;28;20040;-71
2021/08/27 11:20:45;;;;;;;3.63;1.20;;;;;;;;;;5038704;28;20130;-70
2021/08/27 11:23:16;;;;;;;1.75;1.08;;;;;;;;;;5039406;28;20094;-71
2021/08/27 11:25:44;;;;;;;2.15;1.08;;;;;;;;;;5032530;28;20079;-70
2021/08/27 11:28:13;;;;;;;2.00;1.10;;;;;;;;;;5040826;28;20017;-71
2021/08/27 11:30:41;;;;;;;1.88;0.82;;;;;;;;;;5039253;28;20398;-72
2021/08/27 11:33:28;;;;;;;2.05;0.70;;;;;;;;;;5039536;28;20028;-71
2021/08/27 11:35:57;;;;;;;1.88;0.63;;;;;;;;;;5042523;28;20029;-70
2021/08/27 11:38:24;;;;;;;1.00;0.75;;;;;;;;;;5045104;28;20601;-70
2021/08/27 11:40:51;;;;;;;2.15;0.55;;;;;;;;;;5034091;28;20024;-70
2021/08/27 11:43:29;;;;;;;3.03;0.90;;;;;;;;;;5040827;28;20034;-70
2021/08/27 11:45:59;;;;;;;5.75;1.10;;;;;;;;;;5041763;28;20029;-72
2021/08/27 11:48:29;;;;;;;2.67;0.60;;;;;;;;;;5036205;28;20045;-72
2021/08/27 11:50:57;;;;;;;1.33;0.50;;;;;;;;;;5039716;28;20017;-71
2021/08/27 11:53:28;;;;;;;3.00;1.00;;;;;;;;;;5035217;28;20056;-71
2021/08/27 11:55:55;;;;;;;1.55;0.77;;;;;;;;;;5033474;28;20611;-71
2021/08/27 11:58:24;;;;;;;4.15;0.90;;;;;;;;;;5032859;28;20040;-70
2021/08/27 12:00:51;;;;;;;1.48;0.88;;;;;;;;;;5033598;28;20473;-71
2021/08/27 12:03:18;;;;;;;5.00;1.00;;;;;;;;;;5035224;28;20028;-71
2021/08/27 12:05:49;;;;;;;4.00;1.13;;;;;;;;;;5031254;28;20025;-70
2021/08/27 12:08:16;;;;;;;4.00;1.15;;;;;;;;;;5032405;28;20022;-71
2021/08/27 12:10:46;;;;;;;2.60;1.10;;;;;;;;;;5031559;28;20025;-70
2021/08/27 12:13:14;;;;;;;4.80;0.93;;;;;;;;;;5032966;28;20512;-70
2021/08/27 12:15:45;;;;;;;2.05;0.75;;;;;;;;;;5033457;28;20025;-70
2021/08/27 12:18:13;;;;;;;1.75;0.60;;;;;;;;;;5032163;28;20044;-70
2021/08/27 12:20:42;;;;;;;1.58;1.00;;;;;;;;;;5045229;28;20033;-71
2021/08/27 12:23:16;;;;;;;2.85;1.00;;;;;;;;;;5043633;28;20036;-70
2021/08/27 12:25:45;;;;;;;3.45;1.02;;;;;;;;;;5035702;28;20056;-70
2021/08/27 12:28:17;;;;;;;2.53;0.70;;;;;;;;;;5046971;28;20108;-71
2021/08/27 12:30:45;;;;;;;3.00;1.63;;;;;;;;;;5042114;28;20024;-71
2021/08/27 12:33:12;;;;;;;2.60;1.33;;;;;;;;;;5044032;28;20147;-71
2021/08/27 12:35:39;;;;;;;4.10;1.50;;;;;;;;;;5037238;28;20025;-71
2021/08/27 12:38:07;;;;;;;4.22;2.33;;;;;;;;;;5037673;28;20052;-72
2021/08/27 12:40:35;;;;;;;2.90;1.58;;;;;;;;;;5039935;28;20389;-69
2021/08/27 12:43:09;;;;;;;3.88;2.03;;;;;;;;;;5038942;28;20037;-70
2021/08/27 12:45:51;;;;;;;3.70;1.58;;;;;;;;;;5037223;28;20041;-70
2021/08/27 12:48:18;;;;;;;3.50;1.70;;;;;;;;;;5041394;28;20072;-70
2021/08/27 12:50:48;;;;;;;2.47;1.15;;;;;;;;;;5031446;28;20053;-70
2021/08/27 12:53:16;;;;;;;6.18;2.15;;;;;;;;;;5034937;28;20078;-71
2021/08/27 12:55:43;;;;;;;4.80;1.20;;;;;;;;;;5038841;28;20516;-71
2021/08/27 12:58:10;;;;;;;2.72;1.02;;;;;;;;;;5042008;28;20115;-71
2021/08/27 13:00:37;;;;;;;3.38;1.60;;;;;;;;;;5035829;28;20079;-71
2021/08/27 13:03:08;;;;;;;4.25;1.08;;;;;;;;;;5039827;28;20044;-71
2021/08/27 13:05:40;;;;;;;3.88;0.93;;;;;;;;;;5042803;28;20025;-71
2021/08/27 13:08:16;;;;;;;1.95;0.60;;;;;;;;;;5035449;28;20430;-71
2021/08/27 13:10:59;;;;;;;5.35;1.20;;;;;;;;;;5033441;28;20087;-71
2021/08/27 13:13:30;;;;;;;2.58;0.80;;;;;;;;;;5038195;28;20510;-72
2021/08/27 13:16:12;;;;;;;3.38;1.10;;;;;;;;;;5039927;28;20552;-71
2021/08/27 13:18:49;;;;;;;2.58;1.20;;;;;;;;;;5038816;28;20029;-71
2021/08/27 13:21:18;;;;;;;4.75;0.98;;;;;;;;;;5038400;28;20053;-71
2021/08/27 13:23:46;;;;;;;3.72;1.00;;;;;;;;;;5035505;28;20052;-71
2021/08/27 13:26:22;;;;;;;5.20;1.20;;;;;;;;;;5040801;28;20033;-70
2021/08/27 13:28:49;;;;;;;2.08;0.88;;;;;;;;;;5035355;28;20567;-71
2021/08/27 13:31:20;;;;;;;2.90;0.85;;;;;;;;;;5043152;28;20093;-71
2021/08/27 13:33:47;;;;;;;2.17;1.10;;;;;;;;;;5039638;28;20025;-71
2021/08/27 13:36:14;;;;;;;2.85;1.48;;;;;;;;;;5031716;28;20029;-72
2021/08/27 13:38:41;;;;;;;2.70;0.70;;;;;;;;;;5035313;28;20052;-71
2021/08/27 13:41:08;;;;;;;2.60;1.00;;;;;;;;;;5034221;28;20037;-71
2021/08/27 13:43:35;;;;;;;3.95;1.65;;;;;;;;;;5037243;28;20021;-71
2021/08/27 13:46:02;;;;;;;2.10;1.05;;;;;;;;;;5034564;28;20021;-71
2021/08/27 13:48:30;;;;;;;2.00;1.13;;;;;;;;;;5037032;28;20025;-71
2021/08/27 13:50:57;;;;;;;3.05;0.85;;;;;;;;;;5037640;28;20402;-71
2021/08/27 13:53:25;;;;;;;2.25;1.10;;;;;;;;;;5042080;28;20052;-71
2021/08/27 13:55:52;;;;;;;2.70;1.30;;;;;;;;;;5047309;28;20024;-70
2021/08/27 13:58:19;;;;;;;2.25;1.13;;;;;;;;;;5043740;28;20536;-71
2021/08/27 14:00:47;;;;;;;3.08;1.15;;;;;;;;;;5037426;28;20030;-72
2021/08/27 14:03:17;;;;;;;2.17;1.10;;;;;;;;;;5048539;28;20029;-70
2021/08/27 14:05:45;;;;;;;4.20;1.50;;;;;;;;;;5045658;28;20079;-69
2021/08/27 14:08:12;;;;;;;2.53;1.17;;;;;;;;;;5041886;28;20378;-72
2021/08/27 14:10:39;;;;;;;3.05;1.15;;;;;;;;;;5036987;28;20044;-71
2021/08/27 14:13:08;;;;;;;4.25;1.50;;;;;;;;;;5043802;28;20393;-70
2021/08/27 14:15:35;;;;;;;4.95;1.48;;;;;;;;;;5043505;28;20040;-70
2021/08/27 14:18:03;;;;;;;3.88;1.35;;;;;;;;;;5042776;28;20032;-71
2021/08/27 14:20:30;;;;;;;4.10;1.40;;;;;;;;;;5037671;28;20397;-70
2021/08/27 14:22:57;;;;;;;2.42;1.48;;;;;;;;;;5046667;28;20422;-70
2021/08/27 14:25:25;;;;;;;2.80;1.30;;;;;;;;;;5043085;28;20052;-70
2021/08/27 14:27:52;;;;;;;2.47;1.08;;;;;;;;;;5043197;28;20026;-71
2021/08/27 14:30:19;;;;;;;2.63;1.63;;;;;;;;;;5041365;28;20551;-71
2021/08/27 14:32:46;;;;;;;2.65;1.25;;;;;;;;;;5037090;28;20029;-71
2021/08/27 14:35:13;;;;;;;2.30;1.00;;;;;;;;;;5040992;28;20033;-71
2021/08/27 14:37:41;;;;;;;2.80;1.50;;;;;;;;;;5037681;28;20120;-71
2021/08/27 14:40:09;;;;;;;2.83;1.30;;;;;;;;;;5038186;28;20120;-71
2021/08/27 14:42:37;;;;;;;2.85;1.50;;;;;;;;;;5042922;28;20025;-70
2021/08/27 14:45:05;;;;;;;2.33;1.05;;;;;;;;;;5042093;28;20552;-70
2021/08/27 14:47:32;;;;;;;2.67;1.00;;;;;;;;;;5043310;28;20112;-71
2021/08/27 14:49:59;;;;;;;1.88;0.95;;;;;;;;;;5038286;28;20021;-70
2021/08/27 14:52:26;;;;;;;3.03;1.52;;;;;;;;;;5048864;28;20025;-70
2021/08/27 14:54:54;;;;;;;3.67;1.25;;;;;;;;;;5035878;28;20048;-71
2021/08/27 14:57:21;;;;;;;2.67;0.90;;;;;;;;;;5040900;28;20040;-70